Rosebud, New Mexico
Current Conditions -  °F | °C
As of 7:53 AM on Thursday 30 Oct 2014 (Local Time) from KDHT Reporting Station
Clear Clear  
Wind Chill: 51°   Ceiling: Unl
Heat Index: 51°   Visibility: 10mi
Dew Point: 27°   Wind: 20mph
Humidity: 39%   Direction: 10°N
Pressure: 30.26"   Gusts: NA
Location:  35.8947°N, 103.215°W
Report Text: KDHT 301353Z AUTO 01017KT 10SM CLR 11/M03 A3026 RMK AO2 SLP224 T01061028
Loading
Personal Weather Stations






























Interactive Weather Map
Tropical Storm Tracking
New forecast layout! Learn more

10-Day Weather Forecast

Advertisements
Track Severe Weather on mobile